sensor_id;sensor_type;location;lat;lon;timestamp;P1;durP1;ratioP1;P2;durP2;ratioP2
13173;SDS011;6652;48.802;9.190;2023-03-14T00:00:48;1.35;;;0.52;;
13173;SDS011;6652;48.802;9.190;2023-03-14T00:03:15;1.17;;;0.50;;
13173;SDS011;6652;48.802;9.190;2023-03-14T00:05:42;0.75;;;0.40;;
13173;SDS011;6652;48.802;9.190;2023-03-14T00:08:09;1.08;;;0.50;;
13173;SDS011;6652;48.802;9.190;2023-03-14T00:10:37;1.20;;;0.57;;
13173;SDS011;6652;48.802;9.190;2023-03-14T00:13:05;0.73;;;0.50;;
13173;SDS011;6652;48.802;9.190;2023-03-14T00:15:31;0.40;;;0.40;;
13173;SDS011;6652;48.802;9.190;2023-03-14T00:17:58;0.43;;;0.30;;
13173;SDS011;6652;48.802;9.190;2023-03-14T00:20:25;0.98;;;0.50;;
13173;SDS011;6652;48.802;9.190;2023-03-14T00:22:52;1.67;;;0.40;;
13173;SDS011;6652;48.802;9.190;2023-03-14T00:25:19;2.55;;;0.50;;
13173;SDS011;6652;48.802;9.190;2023-03-14T00:27:47;1.67;;;0.52;;
13173;SDS011;6652;48.802;9.190;2023-03-14T00:30:17;0.85;;;0.50;;
13173;SDS011;6652;48.802;9.190;2023-03-14T00:32:43;1.52;;;0.50;;
13173;SDS011;6652;48.802;9.190;2023-03-14T00:35:10;2.05;;;0.70;;
13173;SDS011;6652;48.802;9.190;2023-03-14T00:37:37;1.52;;;0.55;;
13173;SDS011;6652;48.802;9.190;2023-03-14T00:40:04;1.27;;;0.88;;
13173;SDS011;6652;48.802;9.190;2023-03-14T00:42:32;1.50;;;0.40;;
13173;SDS011;6652;48.802;9.190;2023-03-14T00:45:01;0.52;;;0.40;;
13173;SDS011;6652;48.802;9.190;2023-03-14T00:47:28;2.97;;;0.60;;
13173;SDS011;6652;48.802;9.190;2023-03-14T00:49:55;1.20;;;0.60;;
13173;SDS011;6652;48.802;9.190;2023-03-14T00:52:22;1.73;;;0.57;;
13173;SDS011;6652;48.802;9.190;2023-03-14T00:54:49;2.22;;;0.50;;
13173;SDS011;6652;48.802;9.190;2023-03-14T00:57:15;0.60;;;0.50;;
13173;SDS011;6652;48.802;9.190;2023-03-14T00:59:42;1.75;;;0.60;;
13173;SDS011;6652;48.802;9.190;2023-03-14T01:02:10;1.80;;;0.40;;
13173;SDS011;6652;48.802;9.190;2023-03-14T01:04:37;2.33;;;0.50;;
13173;SDS011;6652;48.802;9.190;2023-03-14T01:07:04;1.55;;;0.40;;
13173;SDS011;6652;48.802;9.190;2023-03-14T01:09:31;0.55;;;0.28;;
13173;SDS011;6652;48.802;9.190;2023-03-14T01:11:58;1.13;;;0.45;;
13173;SDS011;6652;48.802;9.190;2023-03-14T01:14:24;4.03;;;0.43;;
13173;SDS011;6652;48.802;9.190;2023-03-14T01:16:51;0.85;;;0.50;;
13173;SDS011;6652;48.802;9.190;2023-03-14T01:19:19;1.00;;;0.60;;
13173;SDS011;6652;48.802;9.190;2023-03-14T01:21:46;3.05;;;0.50;;
13173;SDS011;6652;48.802;9.190;2023-03-14T01:24:13;1.63;;;0.50;;
13173;SDS011;6652;48.802;9.190;2023-03-14T01:26:40;0.43;;;0.43;;
13173;SDS011;6652;48.802;9.190;2023-03-14T01:29:07;0.47;;;0.40;;
13173;SDS011;6652;48.802;9.190;2023-03-14T01:31:34;1.33;;;0.40;;
13173;SDS011;6652;48.802;9.190;2023-03-14T01:34:01;0.70;;;0.30;;
13173;SDS011;6652;48.802;9.190;2023-03-14T01:36:29;1.40;;;0.40;;
13173;SDS011;6652;48.802;9.190;2023-03-14T01:38:56;1.48;;;0.32;;
13173;SDS011;6652;48.802;9.190;2023-03-14T01:41:23;0.57;;;0.30;;
13173;SDS011;6652;48.802;9.190;2023-03-14T01:43:51;1.27;;;0.40;;
13173;SDS011;6652;48.802;9.190;2023-03-14T01:46:20;2.25;;;0.65;;
13173;SDS011;6652;48.802;9.190;2023-03-14T01:48:55;1.55;;;0.30;;
13173;SDS011;6652;48.802;9.190;2023-03-14T01:51:30;0.90;;;0.43;;
13173;SDS011;6652;48.802;9.190;2023-03-14T01:54:03;1.60;;;0.60;;
13173;SDS011;6652;48.802;9.190;2023-03-14T01:56:34;0.30;;;0.30;;
13173;SDS011;6652;48.802;9.190;2023-03-14T01:59:02;1.40;;;0.40;;
13173;SDS011;6652;48.802;9.190;2023-03-14T02:01:32;2.95;;;0.50;;
13173;SDS011;6652;48.802;9.190;2023-03-14T02:04:01;1.38;;;0.50;;
13173;SDS011;6652;48.802;9.190;2023-03-14T02:06:33;2.05;;;0.50;;
13173;SDS011;6652;48.802;9.190;2023-03-14T02:09:06;1.55;;;0.28;;
13173;SDS011;6652;48.802;9.190;2023-03-14T02:11:33;2.85;;;0.63;;
13173;SDS011;6652;48.802;9.190;2023-03-14T02:14:00;1.00;;;0.30;;
13173;SDS011;6652;48.802;9.190;2023-03-14T02:19:21;0.35;;;0.30;;
13173;SDS011;6652;48.802;9.190;2023-03-14T02:21:59;1.70;;;0.60;;
13173;SDS011;6652;48.802;9.190;2023-03-14T02:24:33;1.58;;;0.50;;
13173;SDS011;6652;48.802;9.190;2023-03-14T02:27:11;0.73;;;0.20;;
13173;SDS011;6652;48.802;9.190;2023-03-14T02:29:40;0.35;;;0.35;;
13173;SDS011;6652;48.802;9.190;2023-03-14T02:32:13;4.60;;;0.65;;
13173;SDS011;6652;48.802;9.190;2023-03-14T02:34:42;0.57;;;0.30;;
13173;SDS011;6652;48.802;9.190;2023-03-14T02:37:10;0.30;;;0.30;;
13173;SDS011;6652;48.802;9.190;2023-03-14T02:39:40;1.85;;;0.47;;
13173;SDS011;6652;48.802;9.190;2023-03-14T02:42:10;1.20;;;0.43;;
13173;SDS011;6652;48.802;9.190;2023-03-14T02:44:47;1.02;;;0.30;;
13173;SDS011;6652;48.802;9.190;2023-03-14T02:47:14;0.55;;;0.20;;
13173;SDS011;6652;48.802;9.190;2023-03-14T02:49:42;0.30;;;0.30;;
13173;SDS011;6652;48.802;9.190;2023-03-14T02:52:09;0.35;;;0.30;;
13173;SDS011;6652;48.802;9.190;2023-03-14T02:54:36;1.27;;;0.60;;
13173;SDS011;6652;48.802;9.190;2023-03-14T02:57:02;1.38;;;0.30;;
13173;SDS011;6652;48.802;9.190;2023-03-14T02:59:31;3.00;;;0.40;;
13173;SDS011;6652;48.802;9.190;2023-03-14T03:01:59;1.58;;;0.50;;
13173;SDS011;6652;48.802;9.190;2023-03-14T03:04:26;0.88;;;0.30;;
13173;SDS011;6652;48.802;9.190;2023-03-14T03:06:52;1.20;;;0.50;;
13173;SDS011;6652;48.802;9.190;2023-03-14T03:09:19;1.13;;;0.43;;
13173;SDS011;6652;48.802;9.190;2023-03-14T03:11:46;2.58;;;0.40;;
13173;SDS011;6652;48.802;9.190;2023-03-14T03:14:13;2.58;;;0.50;;
13173;SDS011;6652;48.802;9.190;2023-03-14T03:16:41;2.17;;;0.52;;
13173;SDS011;6652;48.802;9.190;2023-03-14T03:19:08;1.23;;;0.40;;
13173;SDS011;6652;48.802;9.190;2023-03-14T03:21:35;3.40;;;0.50;;
13173;SDS011;6652;48.802;9.190;2023-03-14T03:24:02;2.90;;;0.45;;
13173;SDS011;6652;48.802;9.190;2023-03-14T03:26:28;1.92;;;0.30;;
13173;SDS011;6652;48.802;9.190;2023-03-14T03:28:55;2.85;;;0.73;;
13173;SDS011;6652;48.802;9.190;2023-03-14T03:31:22;1.98;;;0.40;;
13173;SDS011;6652;48.802;9.190;2023-03-14T03:33:50;1.73;;;0.40;;
13173;SDS011;6652;48.802;9.190;2023-03-14T03:36:20;2.97;;;0.65;;
13173;SDS011;6652;48.802;9.190;2023-03-14T03:38:48;2.13;;;0.68;;
13173;SDS011;6652;48.802;9.190;2023-03-14T03:41:15;0.82;;;0.50;;
13173;SDS011;6652;48.802;9.190;2023-03-14T03:43:42;3.10;;;0.45;;
13173;SDS011;6652;48.802;9.190;2023-03-14T03:46:09;1.75;;;0.50;;
13173;SDS011;6652;48.802;9.190;2023-03-14T03:48:36;4.70;;;0.80;;
13173;SDS011;6652;48.802;9.190;2023-03-14T03:51:04;1.48;;;0.40;;
13173;SDS011;6652;48.802;9.190;2023-03-14T03:53:32;3.13;;;0.50;;
13173;SDS011;6652;48.802;9.190;2023-03-14T03:55:58;5.13;;;0.85;;
13173;SDS011;6652;48.802;9.190;2023-03-14T03:58:26;2.25;;;0.52;;
13173;SDS011;6652;48.802;9.190;2023-03-14T04:00:52;4.90;;;0.82;;
13173;SDS011;6652;48.802;9.190;2023-03-14T04:03:20;2.65;;;0.50;;
13173;SDS011;6652;48.802;9.190;2023-03-14T04:05:57;5.95;;;0.90;;
13173;SDS011;6652;48.802;9.190;2023-03-14T04:08:26;1.15;;;0.47;;
13173;SDS011;6652;48.802;9.190;2023-03-14T04:10:54;3.50;;;0.70;;
13173;SDS011;6652;48.802;9.190;2023-03-14T04:13:21;7.32;;;0.93;;
13173;SDS011;6652;48.802;9.190;2023-03-14T04:15:48;4.00;;;0.70;;
13173;SDS011;6652;48.802;9.190;2023-03-14T04:18:16;5.55;;;0.70;;
13173;SDS011;6652;48.802;9.190;2023-03-14T04:20:42;3.15;;;0.77;;
13173;SDS011;6652;48.802;9.190;2023-03-14T04:23:09;3.63;;;0.80;;
13173;SDS011;6652;48.802;9.190;2023-03-14T04:25:37;11.48;;;2.70;;
13173;SDS011;6652;48.802;9.190;2023-03-14T04:28:04;14.32;;;1.42;;
13173;SDS011;6652;48.802;9.190;2023-03-14T04:30:31;4.55;;;0.75;;
13173;SDS011;6652;48.802;9.190;2023-03-14T04:32:59;5.00;;;0.98;;
13173;SDS011;6652;48.802;9.190;2023-03-14T04:35:26;5.03;;;1.10;;
13173;SDS011;6652;48.802;9.190;2023-03-14T04:37:53;4.88;;;0.95;;
13173;SDS011;6652;48.802;9.190;2023-03-14T04:40:20;6.60;;;0.85;;
13173;SDS011;6652;48.802;9.190;2023-03-14T04:42:48;6.85;;;1.10;;
13173;SDS011;6652;48.802;9.190;2023-03-14T04:45:15;3.38;;;0.65;;
13173;SDS011;6652;48.802;9.190;2023-03-14T04:47:41;5.65;;;1.02;;
13173;SDS011;6652;48.802;9.190;2023-03-14T04:50:09;3.80;;;0.68;;
13173;SDS011;6652;48.802;9.190;2023-03-14T04:52:36;4.85;;;0.70;;
13173;SDS011;6652;48.802;9.190;2023-03-14T04:55:04;6.93;;;1.02;;
13173;SDS011;6652;48.802;9.190;2023-03-14T04:57:31;6.68;;;1.20;;
13173;SDS011;6652;48.802;9.190;2023-03-14T04:59:59;4.45;;;1.05;;
13173;SDS011;6652;48.802;9.190;2023-03-14T05:02:31;5.95;;;1.10;;
13173;SDS011;6652;48.802;9.190;2023-03-14T05:04:58;4.53;;;0.73;;
13173;SDS011;6652;48.802;9.190;2023-03-14T05:07:24;4.72;;;1.00;;
13173;SDS011;6652;48.802;9.190;2023-03-14T05:09:51;9.82;;;0.95;;
13173;SDS011;6652;48.802;9.190;2023-03-14T05:12:18;4.30;;;0.63;;
13173;SDS011;6652;48.802;9.190;2023-03-14T05:14:46;5.30;;;0.95;;
13173;SDS011;6652;48.802;9.190;2023-03-14T05:17:14;4.15;;;1.20;;
13173;SDS011;6652;48.802;9.190;2023-03-14T05:19:41;2.05;;;0.82;;
13173;SDS011;6652;48.802;9.190;2023-03-14T05:22:08;8.52;;;0.98;;
13173;SDS011;6652;48.802;9.190;2023-03-14T05:24:36;6.68;;;1.40;;
13173;SDS011;6652;48.802;9.190;2023-03-14T05:27:03;4.30;;;1.00;;
13173;SDS011;6652;48.802;9.190;2023-03-14T05:29:30;6.40;;;1.08;;
13173;SDS011;6652;48.802;9.190;2023-03-14T05:31:57;5.97;;;1.45;;
13173;SDS011;6652;48.802;9.190;2023-03-14T05:34:25;6.75;;;1.27;;
13173;SDS011;6652;48.802;9.190;2023-03-14T05:36:52;6.28;;;0.93;;
13173;SDS011;6652;48.802;9.190;2023-03-14T05:39:20;9.25;;;2.10;;
13173;SDS011;6652;48.802;9.190;2023-03-14T05:41:47;4.18;;;0.90;;
13173;SDS011;6652;48.802;9.190;2023-03-14T05:44:13;3.30;;;0.80;;
13173;SDS011;6652;48.802;9.190;2023-03-14T05:46:41;3.78;;;0.80;;
13173;SDS011;6652;48.802;9.190;2023-03-14T05:49:08;4.70;;;0.90;;
13173;SDS011;6652;48.802;9.190;2023-03-14T05:51:36;5.88;;;0.90;;
13173;SDS011;6652;48.802;9.190;2023-03-14T05:54:03;5.75;;;0.95;;
13173;SDS011;6652;48.802;9.190;2023-03-14T05:56:30;4.93;;;0.80;;
13173;SDS011;6652;48.802;9.190;2023-03-14T05:58:56;7.45;;;1.10;;
13173;SDS011;6652;48.802;9.190;2023-03-14T06:01:23;7.43;;;0.90;;
13173;SDS011;6652;48.802;9.190;2023-03-14T06:03:50;3.72;;;0.93;;
13173;SDS011;6652;48.802;9.190;2023-03-14T06:06:17;5.30;;;1.05;;
13173;SDS011;6652;48.802;9.190;2023-03-14T06:08:45;5.80;;;0.93;;
13173;SDS011;6652;48.802;9.190;2023-03-14T06:11:12;4.32;;;1.00;;
13173;SDS011;6652;48.802;9.190;2023-03-14T06:13:39;7.57;;;1.10;;
13173;SDS011;6652;48.802;9.190;2023-03-14T06:16:06;3.55;;;1.13;;
13173;SDS011;6652;48.802;9.190;2023-03-14T06:18:33;4.47;;;0.90;;
13173;SDS011;6652;48.802;9.190;2023-03-14T06:21:00;4.60;;;0.70;;
13173;SDS011;6652;48.802;9.190;2023-03-14T06:23:27;7.75;;;1.05;;
13173;SDS011;6652;48.802;9.190;2023-03-14T06:29:05;6.43;;;1.17;;
13173;SDS011;6652;48.802;9.190;2023-03-14T06:31:32;5.88;;;1.00;;
13173;SDS011;6652;48.802;9.190;2023-03-14T06:33:59;5.20;;;1.70;;
13173;SDS011;6652;48.802;9.190;2023-03-14T06:36:26;3.97;;;0.80;;
13173;SDS011;6652;48.802;9.190;2023-03-14T06:38:53;3.67;;;1.15;;
13173;SDS011;6652;48.802;9.190;2023-03-14T06:41:20;4.95;;;1.10;;
13173;SDS011;6652;48.802;9.190;2023-03-14T06:43:48;3.22;;;0.90;;
13173;SDS011;6652;48.802;9.190;2023-03-14T06:46:17;6.40;;;1.25;;
13173;SDS011;6652;48.802;9.190;2023-03-14T06:48:43;4.78;;;1.10;;
13173;SDS011;6652;48.802;9.190;2023-03-14T06:51:10;6.72;;;1.10;;
13173;SDS011;6652;48.802;9.190;2023-03-14T06:53:37;4.95;;;1.15;;
13173;SDS011;6652;48.802;9.190;2023-03-14T06:56:04;5.25;;;0.90;;
13173;SDS011;6652;48.802;9.190;2023-03-14T06:58:32;6.50;;;1.08;;
13173;SDS011;6652;48.802;9.190;2023-03-14T07:00:59;4.40;;;1.27;;
13173;SDS011;6652;48.802;9.190;2023-03-14T07:03:27;3.58;;;0.93;;
13173;SDS011;6652;48.802;9.190;2023-03-14T07:05:54;3.33;;;0.85;;
13173;SDS011;6652;48.802;9.190;2023-03-14T07:08:21;4.40;;;1.00;;
13173;SDS011;6652;48.802;9.190;2023-03-14T07:10:48;3.70;;;0.88;;
13173;SDS011;6652;48.802;9.190;2023-03-14T07:13:15;3.78;;;0.80;;
13173;SDS011;6652;48.802;9.190;2023-03-14T07:15:42;2.60;;;0.90;;
13173;SDS011;6652;48.802;9.190;2023-03-14T07:18:08;3.92;;;1.10;;
13173;SDS011;6652;48.802;9.190;2023-03-14T07:20:37;2.67;;;1.00;;
13173;SDS011;6652;48.802;9.190;2023-03-14T07:23:05;4.55;;;0.82;;
13173;SDS011;6652;48.802;9.190;2023-03-14T07:25:31;3.55;;;0.77;;
13173;SDS011;6652;48.802;9.190;2023-03-14T07:27:58;1.85;;;0.60;;
13173;SDS011;6652;48.802;9.190;2023-03-14T07:30:25;2.33;;;0.70;;
13173;SDS011;6652;48.802;9.190;2023-03-14T07:32:52;2.08;;;0.65;;
13173;SDS011;6652;48.802;9.190;2023-03-14T07:35:19;1.25;;;0.68;;
13173;SDS011;6652;48.802;9.190;2023-03-14T07:37:47;1.67;;;0.60;;
13173;SDS011;6652;48.802;9.190;2023-03-14T07:40:14;2.00;;;0.70;;
13173;SDS011;6652;48.802;9.190;2023-03-14T07:42:41;1.85;;;0.50;;
13173;SDS011;6652;48.802;9.190;2023-03-14T07:45:09;10.07;;;0.82;;
13173;SDS011;6652;48.802;9.190;2023-03-14T07:47:36;1.90;;;0.77;;
13173;SDS011;6652;48.802;9.190;2023-03-14T07:50:04;2.08;;;0.57;;
13173;SDS011;6652;48.802;9.190;2023-03-14T07:52:31;7.53;;;0.70;;
13173;SDS011;6652;48.802;9.190;2023-03-14T07:55:00;2.55;;;0.63;;
13173;SDS011;6652;48.802;9.190;2023-03-14T07:57:27;6.43;;;0.80;;
13173;SDS011;6652;48.802;9.190;2023-03-14T07:59:54;2.95;;;0.90;;
13173;SDS011;6652;48.802;9.190;2023-03-14T08:02:20;3.33;;;0.40;;
13173;SDS011;6652;48.802;9.190;2023-03-14T08:04:49;2.85;;;1.00;;
13173;SDS011;6652;48.802;9.190;2023-03-14T08:07:16;2.72;;;1.20;;
13173;SDS011;6652;48.802;9.190;2023-03-14T08:09:43;1.67;;;0.63;;
13173;SDS011;6652;48.802;9.190;2023-03-14T08:12:11;1.10;;;0.80;;
13173;SDS011;6652;48.802;9.190;2023-03-14T08:14:38;1.90;;;0.70;;
13173;SDS011;6652;48.802;9.190;2023-03-14T08:17:05;1.30;;;0.40;;
13173;SDS011;6652;48.802;9.190;2023-03-14T08:19:33;2.05;;;0.47;;
13173;SDS011;6652;48.802;9.190;2023-03-14T08:22:00;0.75;;;0.45;;
13173;SDS011;6652;48.802;9.190;2023-03-14T08:24:27;3.38;;;0.40;;
13173;SDS011;6652;48.802;9.190;2023-03-14T08:26:54;1.63;;;0.43;;
13173;SDS011;6652;48.802;9.190;2023-03-14T08:29:22;6.75;;;0.40;;
13173;SDS011;6652;48.802;9.190;2023-03-14T08:31:49;2.20;;;0.40;;
13173;SDS011;6652;48.802;9.190;2023-03-14T08:34:16;1.38;;;0.85;;
13173;SDS011;6652;48.802;9.190;2023-03-14T08:36:43;1.20;;;0.50;;
13173;SDS011;6652;48.802;9.190;2023-03-14T08:39:11;0.98;;;0.50;;
13173;SDS011;6652;48.802;9.190;2023-03-14T08:41:37;1.45;;;0.60;;
13173;SDS011;6652;48.802;9.190;2023-03-14T08:44:08;4.40;;;0.80;;
13173;SDS011;6652;48.802;9.190;2023-03-14T08:46:37;1.33;;;0.30;;
13173;SDS011;6652;48.802;9.190;2023-03-14T08:49:04;2.50;;;0.60;;
13173;SDS011;6652;48.802;9.190;2023-03-14T08:51:31;3.63;;;0.47;;
13173;SDS011;6652;48.802;9.190;2023-03-14T08:53:58;1.35;;;0.73;;
13173;SDS011;6652;48.802;9.190;2023-03-14T08:56:24;1.58;;;0.40;;
13173;SDS011;6652;48.802;9.190;2023-03-14T08:58:51;1.75;;;0.30;;
13173;SDS011;6652;48.802;9.190;2023-03-14T09:01:18;1.30;;;0.52;;
13173;SDS011;6652;48.802;9.190;2023-03-14T09:03:47;1.73;;;0.30;;
13173;SDS011;6652;48.802;9.190;2023-03-14T09:06:13;5.05;;;0.43;;
13173;SDS011;6652;48.802;9.190;2023-03-14T09:08:43;1.67;;;0.32;;
13173;SDS011;6652;48.802;9.190;2023-03-14T09:11:09;1.27;;;0.57;;
13173;SDS011;6652;48.802;9.190;2023-03-14T09:13:36;3.25;;;0.43;;
13173;SDS011;6652;48.802;9.190;2023-03-14T09:16:03;3.65;;;0.50;;
13173;SDS011;6652;48.802;9.190;2023-03-14T09:18:31;6.95;;;0.57;;
13173;SDS011;6652;48.802;9.190;2023-03-14T09:20:59;0.50;;;0.25;;
13173;SDS011;6652;48.802;9.190;2023-03-14T09:23:26;1.13;;;0.30;;
13173;SDS011;6652;48.802;9.190;2023-03-14T09:25:54;1.75;;;0.70;;
13173;SDS011;6652;48.802;9.190;2023-03-14T09:28:21;0.85;;;0.32;;
13173;SDS011;6652;48.802;9.190;2023-03-14T09:30:48;3.05;;;0.70;;
13173;SDS011;6652;48.802;9.190;2023-03-14T09:33:15;0.60;;;0.60;;
13173;SDS011;6652;48.802;9.190;2023-03-14T09:35:42;1.00;;;0.20;;
13173;SDS011;6652;48.802;9.190;2023-03-14T09:38:10;0.60;;;0.30;;
13173;SDS011;6652;48.802;9.190;2023-03-14T09:40:37;1.20;;;0.20;;
13173;SDS011;6652;48.802;9.190;2023-03-14T09:43:08;3.13;;;0.30;;
13173;SDS011;6652;48.802;9.190;2023-03-14T09:45:38;0.95;;;0.30;;
13173;SDS011;6652;48.802;9.190;2023-03-14T09:48:09;1.17;;;0.25;;
13173;SDS011;6652;48.802;9.190;2023-03-14T09:50:42;0.60;;;0.43;;
13173;SDS011;6652;48.802;9.190;2023-03-14T09:53:13;1.70;;;0.80;;
13173;SDS011;6652;48.802;9.190;2023-03-14T09:55:43;1.50;;;0.55;;
13173;SDS011;6652;48.802;9.190;2023-03-14T09:58:12;2.05;;;0.40;;
13173;SDS011;6652;48.802;9.190;2023-03-14T10:00:42;4.15;;;0.60;;
13173;SDS011;6652;48.802;9.190;2023-03-14T10:05:52;1.33;;;0.30;;
13173;SDS011;6652;48.802;9.190;2023-03-14T10:08:22;1.88;;;0.47;;
13173;SDS011;6652;48.802;9.190;2023-03-14T10:10:49;0.60;;;0.45;;
13173;SDS011;6652;48.802;9.190;2023-03-14T10:13:16;7.38;;;1.25;;
13173;SDS011;6652;48.802;9.190;2023-03-14T10:15:47;2.00;;;0.60;;
13173;SDS011;6652;48.802;9.190;2023-03-14T10:18:17;3.40;;;0.40;;
13173;SDS011;6652;48.802;9.190;2023-03-14T10:20:44;1.33;;;0.22;;
13173;SDS011;6652;48.802;9.190;2023-03-14T10:23:22;2.40;;;0.30;;
13173;SDS011;6652;48.802;9.190;2023-03-14T10:26:00;1.38;;;0.40;;
13173;SDS011;6652;48.802;9.190;2023-03-14T10:28:37;1.02;;;0.30;;
13173;SDS011;6652;48.802;9.190;2023-03-14T10:31:05;1.45;;;0.28;;
13173;SDS011;6652;48.802;9.190;2023-03-14T10:33:33;0.70;;;0.22;;
13173;SDS011;6652;48.802;9.190;2023-03-14T10:36:02;0.57;;;0.30;;
13173;SDS011;6652;48.802;9.190;2023-03-14T10:38:33;0.68;;;0.45;;
13173;SDS011;6652;48.802;9.190;2023-03-14T10:41:01;0.60;;;0.30;;
13173;SDS011;6652;48.802;9.190;2023-03-14T10:43:40;1.65;;;0.25;;
13173;SDS011;6652;48.802;9.190;2023-03-14T10:46:08;6.35;;;0.40;;
13173;SDS011;6652;48.802;9.190;2023-03-14T10:48:38;1.95;;;0.40;;
13173;SDS011;6652;48.802;9.190;2023-03-14T10:51:07;1.17;;;0.35;;
13173;SDS011;6652;48.802;9.190;2023-03-14T10:53:43;0.77;;;0.30;;
13173;SDS011;6652;48.802;9.190;2023-03-14T10:56:12;0.85;;;0.50;;
13173;SDS011;6652;48.802;9.190;2023-03-14T10:58:40;0.73;;;0.28;;
13173;SDS011;6652;48.802;9.190;2023-03-14T11:01:12;1.65;;;0.20;;
13173;SDS011;6652;48.802;9.190;2023-03-14T11:03:49;0.73;;;0.20;;
13173;SDS011;6652;48.802;9.190;2023-03-14T11:06:21;1.25;;;0.13;;
13173;SDS011;6652;48.802;9.190;2023-03-14T11:08:54;1.80;;;0.28;;
13173;SDS011;6652;48.802;9.190;2023-03-14T11:11:30;1.10;;;0.35;;
13173;SDS011;6652;48.802;9.190;2023-03-14T11:14:00;0.40;;;0.38;;
13173;SDS011;6652;48.802;9.190;2023-03-14T11:16:37;1.08;;;0.35;;
13173;SDS011;6652;48.802;9.190;2023-03-14T11:19:23;2.88;;;0.30;;
13173;SDS011;6652;48.802;9.190;2023-03-14T11:22:11;1.17;;;0.30;;
13173;SDS011;6652;48.802;9.190;2023-03-14T11:24:49;1.30;;;0.22;;
13173;SDS011;6652;48.802;9.190;2023-03-14T11:27:25;0.50;;;0.30;;
13173;SDS011;6652;48.802;9.190;2023-03-14T11:29:58;0.38;;;0.20;;
13173;SDS011;6652;48.802;9.190;2023-03-14T11:32:36;1.67;;;0.50;;
13173;SDS011;6652;48.802;9.190;2023-03-14T11:35:14;2.80;;;0.50;;
13173;SDS011;6652;48.802;9.190;2023-03-14T11:37:45;0.93;;;0.25;;
13173;SDS011;6652;48.802;9.190;2023-03-14T11:40:17;0.35;;;0.20;;
13173;SDS011;6652;48.802;9.190;2023-03-14T11:42:46;1.05;;;0.20;;
13173;SDS011;6652;48.802;9.190;2023-03-14T11:45:22;1.17;;;0.30;;
13173;SDS011;6652;48.802;9.190;2023-03-14T11:47:56;2.50;;;0.60;;
13173;SDS011;6652;48.802;9.190;2023-03-14T11:50:33;1.30;;;0.60;;
13173;SDS011;6652;48.802;9.190;2023-03-14T11:53:03;0.73;;;0.30;;
13173;SDS011;6652;48.802;9.190;2023-03-14T11:55:37;1.38;;;0.32;;
13173;SDS011;6652;48.802;9.190;2023-03-14T11:58:09;0.65;;;0.35;;
13173;SDS011;6652;48.802;9.190;2023-03-14T12:00:40;1.33;;;0.45;;
13173;SDS011;6652;48.802;9.190;2023-03-14T12:03:10;2.92;;;1.02;;
13173;SDS011;6652;48.802;9.190;2023-03-14T12:05:43;0.35;;;0.30;;
13173;SDS011;6652;48.802;9.190;2023-03-14T12:11:15;1.13;;;0.40;;
13173;SDS011;6652;48.802;9.190;2023-03-14T12:13:48;1.63;;;0.88;;
13173;SDS011;6652;48.802;9.190;2023-03-14T12:16:24;3.28;;;0.35;;
13173;SDS011;6652;48.802;9.190;2023-03-14T12:18:56;0.60;;;0.30;;
13173;SDS011;6652;48.802;9.190;2023-03-14T12:21:43;9.38;;;0.82;;
13173;SDS011;6652;48.802;9.190;2023-03-14T12:24:17;0.38;;;0.28;;
13173;SDS011;6652;48.802;9.190;2023-03-14T12:26:51;0.32;;;0.30;;
13173;SDS011;6652;48.802;9.190;2023-03-14T12:29:19;2.53;;;0.30;;
13173;SDS011;6652;48.802;9.190;2023-03-14T12:31:47;0.30;;;0.20;;
13173;SDS011;6652;48.802;9.190;2023-03-14T12:34:30;0.43;;;0.25;;
13173;SDS011;6652;48.802;9.190;2023-03-14T12:39:34;1.65;;;0.40;;
13173;SDS011;6652;48.802;9.190;2023-03-14T12:42:12;0.38;;;0.38;;
13173;SDS011;6652;48.802;9.190;2023-03-14T12:44:42;1.95;;;0.40;;
13173;SDS011;6652;48.802;9.190;2023-03-14T12:50:22;5.97;;;0.65;;
13173;SDS011;6652;48.802;9.190;2023-03-14T12:52:59;4.60;;;0.40;;
13173;SDS011;6652;48.802;9.190;2023-03-14T12:55:57;2.97;;;0.75;;
13173;SDS011;6652;48.802;9.190;2023-03-14T12:58:34;7.68;;;0.65;;
13173;SDS011;6652;48.802;9.190;2023-03-14T13:01:05;3.17;;;0.80;;
13173;SDS011;6652;48.802;9.190;2023-03-14T13:03:42;2.08;;;0.52;;
13173;SDS011;6652;48.802;9.190;2023-03-14T13:06:11;3.45;;;0.65;;
13173;SDS011;6652;48.802;9.190;2023-03-14T13:08:39;3.20;;;0.68;;
13173;SDS011;6652;48.802;9.190;2023-03-14T13:11:07;1.58;;;0.60;;
13173;SDS011;6652;48.802;9.190;2023-03-14T13:13:42;2.97;;;0.50;;
13173;SDS011;6652;48.802;9.190;2023-03-14T13:16:15;0.57;;;0.30;;
13173;SDS011;6652;48.802;9.190;2023-03-14T13:18:43;1.42;;;0.50;;
13173;SDS011;6652;48.802;9.190;2023-03-14T13:21:12;4.13;;;0.60;;
13173;SDS011;6652;48.802;9.190;2023-03-14T13:23:53;1.15;;;0.40;;
13173;SDS011;6652;48.802;9.190;2023-03-14T13:26:22;2.50;;;0.50;;
13173;SDS011;6652;48.802;9.190;2023-03-14T13:28:53;1.42;;;0.38;;
13173;SDS011;6652;48.802;9.190;2023-03-14T13:31:21;4.47;;;0.50;;
13173;SDS011;6652;48.802;9.190;2023-03-14T13:33:59;3.63;;;0.55;;
13173;SDS011;6652;48.802;9.190;2023-03-14T13:36:26;3.72;;;0.93;;
13173;SDS011;6652;48.802;9.190;2023-03-14T13:38:57;2.15;;;1.00;;
13173;SDS011;6652;48.802;9.190;2023-03-14T13:41:24;3.08;;;0.40;;
13173;SDS011;6652;48.802;9.190;2023-03-14T13:43:53;6.43;;;0.68;;
13173;SDS011;6652;48.802;9.190;2023-03-14T13:46:26;4.10;;;0.57;;
13173;SDS011;6652;48.802;9.190;2023-03-14T13:48:54;2.72;;;0.65;;
13173;SDS011;6652;48.802;9.190;2023-03-14T13:51:24;4.13;;;0.63;;
13173;SDS011;6652;48.802;9.190;2023-03-14T13:53:55;4.80;;;0.60;;
13173;SDS011;6652;48.802;9.190;2023-03-14T13:56:23;3.53;;;0.45;;
13173;SDS011;6652;48.802;9.190;2023-03-14T13:58:53;2.92;;;0.90;;
13173;SDS011;6652;48.802;9.190;2023-03-14T14:01:21;2.30;;;0.65;;
13173;SDS011;6652;48.802;9.190;2023-03-14T14:03:50;8.15;;;1.35;;
13173;SDS011;6652;48.802;9.190;2023-03-14T14:06:21;2.28;;;0.60;;
13173;SDS011;6652;48.802;9.190;2023-03-14T14:08:53;2.30;;;0.52;;
13173;SDS011;6652;48.802;9.190;2023-03-14T14:11:31;1.88;;;0.50;;
13173;SDS011;6652;48.802;9.190;2023-03-14T14:14:10;4.00;;;0.50;;
13173;SDS011;6652;48.802;9.190;2023-03-14T14:16:41;9.52;;;0.50;;
13173;SDS011;6652;48.802;9.190;2023-03-14T14:19:09;2.65;;;0.45;;
13173;SDS011;6652;48.802;9.190;2023-03-14T14:21:36;1.90;;;0.43;;
13173;SDS011;6652;48.802;9.190;2023-03-14T14:24:04;2.65;;;0.60;;
13173;SDS011;6652;48.802;9.190;2023-03-14T14:26:31;6.20;;;0.70;;
13173;SDS011;6652;48.802;9.190;2023-03-14T14:28:59;5.30;;;0.55;;
13173;SDS011;6652;48.802;9.190;2023-03-14T14:31:29;2.97;;;0.47;;
13173;SDS011;6652;48.802;9.190;2023-03-14T14:33:57;9.80;;;0.70;;
13173;SDS011;6652;48.802;9.190;2023-03-14T14:36:25;2.83;;;0.60;;
13173;SDS011;6652;48.802;9.190;2023-03-14T14:38:57;2.58;;;0.68;;
13173;SDS011;6652;48.802;9.190;2023-03-14T14:41:26;3.55;;;0.82;;
13173;SDS011;6652;48.802;9.190;2023-03-14T14:43:56;4.45;;;0.80;;
13173;SDS011;6652;48.802;9.190;2023-03-14T14:46:23;2.50;;;0.50;;
13173;SDS011;6652;48.802;9.190;2023-03-14T14:48:56;4.10;;;0.90;;
13173;SDS011;6652;48.802;9.190;2023-03-14T14:51:25;4.68;;;0.50;;
13173;SDS011;6652;48.802;9.190;2023-03-14T14:56:35;3.65;;;0.70;;
13173;SDS011;6652;48.802;9.190;2023-03-14T14:59:04;2.60;;;0.82;;
13173;SDS011;6652;48.802;9.190;2023-03-14T15:01:33;4.97;;;0.98;;
13173;SDS011;6652;48.802;9.190;2023-03-14T15:04:08;4.47;;;1.08;;
13173;SDS011;6652;48.802;9.190;2023-03-14T15:06:38;13.88;;;0.85;;
13173;SDS011;6652;48.802;9.190;2023-03-14T15:09:05;3.70;;;0.85;;
13173;SDS011;6652;48.802;9.190;2023-03-14T15:11:34;3.50;;;0.75;;
13173;SDS011;6652;48.802;9.190;2023-03-14T15:14:01;4.85;;;0.70;;
13173;SDS011;6652;48.802;9.190;2023-03-14T15:16:29;3.17;;;0.70;;
13173;SDS011;6652;48.802;9.190;2023-03-14T15:19:01;2.67;;;0.57;;
13173;SDS011;6652;48.802;9.190;2023-03-14T15:21:36;6.65;;;0.80;;
13173;SDS011;6652;48.802;9.190;2023-03-14T15:24:03;5.13;;;0.85;;
13173;SDS011;6652;48.802;9.190;2023-03-14T15:26:31;3.25;;;0.85;;
13173;SDS011;6652;48.802;9.190;2023-03-14T15:28:58;5.00;;;0.80;;
13173;SDS011;6652;48.802;9.190;2023-03-14T15:31:24;5.82;;;1.02;;